sensor_id;sensor_type;location;lat;lon;timestamp;pressure;altitude;pressure_sealevel;temperature;humidity
12636;BME280;6383;50.830;7.210;2022-09-29T00:01:20;99269.22;;;10.18;85.88
12636;BME280;6383;50.830;7.210;2022-09-29T00:03:51;99271.44;;;10.16;85.76
12636;BME280;6383;50.830;7.210;2022-09-29T00:06:20;99258.50;;;10.13;85.77
12636;BME280;6383;50.830;7.210;2022-09-29T00:08:49;99280.91;;;10.10;85.86
12636;BME280;6383;50.830;7.210;2022-09-29T00:11:18;99272.28;;;10.08;85.32
12636;BME280;6383;50.830;7.210;2022-09-29T00:13:48;99270.22;;;10.05;85.37
12636;BME280;6383;50.830;7.210;2022-09-29T00:16:17;99270.88;;;10.02;85.22
12636;BME280;6383;50.830;7.210;2022-09-29T00:18:46;99269.94;;;9.98;85.06
12636;BME280;6383;50.830;7.210;2022-09-29T00:21:17;99274.78;;;9.93;85.53
12636;BME280;6383;50.830;7.210;2022-09-29T00:23:48;99277.34;;;9.89;85.70
12636;BME280;6383;50.830;7.210;2022-09-29T00:26:19;99273.03;;;9.88;85.21
12636;BME280;6383;50.830;7.210;2022-09-29T00:28:50;99269.84;;;9.86;84.75
12636;BME280;6383;50.830;7.210;2022-09-29T00:31:21;99270.97;;;9.85;85.01
12636;BME280;6383;50.830;7.210;2022-09-29T00:33:50;99268.88;;;9.82;84.76
12636;BME280;6383;50.830;7.210;2022-09-29T00:36:21;99262.97;;;9.80;84.16
12636;BME280;6383;50.830;7.210;2022-09-29T00:38:51;99269.56;;;9.79;83.89
12636;BME280;6383;50.830;7.210;2022-09-29T00:41:23;99269.41;;;9.75;84.38
12636;BME280;6383;50.830;7.210;2022-09-29T00:43:56;99266.06;;;9.70;83.62
12636;BME280;6383;50.830;7.210;2022-09-29T00:46:35;99271.34;;;9.66;84.56
12636;BME280;6383;50.830;7.210;2022-09-29T00:49:09;99268.19;;;9.64;84.16
12636;BME280;6383;50.830;7.210;2022-09-29T00:51:44;99273.78;;;9.59;84.56
12636;BME280;6383;50.830;7.210;2022-09-29T00:54:16;99271.41;;;9.58;84.44
12636;BME280;6383;50.830;7.210;2022-09-29T00:56:48;99280.66;;;9.57;83.56
12636;BME280;6383;50.830;7.210;2022-09-29T00:59:22;99267.25;;;9.51;83.78
12636;BME280;6383;50.830;7.210;2022-09-29T01:01:52;99269.53;;;9.49;83.96
12636;BME280;6383;50.830;7.210;2022-09-29T01:04:21;99268.56;;;9.45;83.44
12636;BME280;6383;50.830;7.210;2022-09-29T01:06:54;99264.56;;;9.43;83.55
12636;BME280;6383;50.830;7.210;2022-09-29T01:09:25;99266.81;;;9.41;83.71
12636;BME280;6383;50.830;7.210;2022-09-29T01:11:56;99275.28;;;9.39;84.05
12636;BME280;6383;50.830;7.210;2022-09-29T01:14:28;99273.56;;;9.35;83.89
12636;BME280;6383;50.830;7.210;2022-09-29T01:16:58;99279.94;;;9.30;84.13
12636;BME280;6383;50.830;7.210;2022-09-29T01:19:36;99271.47;;;9.23;83.32
12636;BME280;6383;50.830;7.210;2022-09-29T01:22:20;99277.41;;;9.16;84.12
12636;BME280;6383;50.830;7.210;2022-09-29T01:25:12;99272.63;;;9.13;83.80
12636;BME280;6383;50.830;7.210;2022-09-29T01:28:15;99285.72;;;9.11;83.79
12636;BME280;6383;50.830;7.210;2022-09-29T01:31:01;99284.44;;;9.09;82.61
12636;BME280;6383;50.830;7.210;2022-09-29T01:33:38;99288.75;;;9.10;83.19
12636;BME280;6383;50.830;7.210;2022-09-29T01:36:10;99281.75;;;8.92;83.82
12636;BME280;6383;50.830;7.210;2022-09-29T01:38:50;99283.97;;;8.98;83.95
12636;BME280;6383;50.830;7.210;2022-09-29T01:41:29;99289.41;;;8.98;83.35
12636;BME280;6383;50.830;7.210;2022-09-29T01:44:03;99289.09;;;9.00;82.95
12636;BME280;6383;50.830;7.210;2022-09-29T01:46:39;99287.50;;;8.99;82.85
12636;BME280;6383;50.830;7.210;2022-09-29T01:49:11;99287.81;;;8.97;82.70
12636;BME280;6383;50.830;7.210;2022-09-29T01:51:46;99284.63;;;8.95;83.68
12636;BME280;6383;50.830;7.210;2022-09-29T01:54:20;99295.78;;;8.94;82.88
12636;BME280;6383;50.830;7.210;2022-09-29T01:56:54;99295.34;;;8.74;83.45
12636;BME280;6383;50.830;7.210;2022-09-29T01:59:29;99284.78;;;8.81;83.26
12636;BME280;6383;50.830;7.210;2022-09-29T02:02:04;99292.94;;;8.81;83.76
12636;BME280;6383;50.830;7.210;2022-09-29T02:04:38;99294.53;;;8.82;82.78
12636;BME280;6383;50.830;7.210;2022-09-29T02:07:13;99278.09;;;8.79;82.42
12636;BME280;6383;50.830;7.210;2022-09-29T02:09:47;99295.16;;;8.79;81.84
12636;BME280;6383;50.830;7.210;2022-09-29T02:12:21;99283.38;;;8.75;81.80
12636;BME280;6383;50.830;7.210;2022-09-29T02:14:54;99295.66;;;8.73;82.62
12636;BME280;6383;50.830;7.210;2022-09-29T02:17:30;99289.25;;;8.69;82.08
12636;BME280;6383;50.830;7.210;2022-09-29T02:19:58;99286.88;;;8.67;82.33
12636;BME280;6383;50.830;7.210;2022-09-29T02:22:27;99289.09;;;8.65;82.85
12636;BME280;6383;50.830;7.210;2022-09-29T02:24:57;99293.72;;;8.65;81.74
12636;BME280;6383;50.830;7.210;2022-09-29T02:27:27;99304.09;;;8.63;82.18
12636;BME280;6383;50.830;7.210;2022-09-29T02:29:57;99294.34;;;8.62;82.34
12636;BME280;6383;50.830;7.210;2022-09-29T02:32:28;99298.97;;;8.61;81.74
12636;BME280;6383;50.830;7.210;2022-09-29T02:34:57;99289.28;;;8.60;83.05
12636;BME280;6383;50.830;7.210;2022-09-29T02:37:36;99296.91;;;8.58;81.80
12636;BME280;6383;50.830;7.210;2022-09-29T02:40:19;99296.44;;;8.56;82.56
12636;BME280;6383;50.830;7.210;2022-09-29T02:43:09;99294.34;;;8.53;81.72
12636;BME280;6383;50.830;7.210;2022-09-29T02:45:49;99296.59;;;8.51;82.12
12636;BME280;6383;50.830;7.210;2022-09-29T02:48:38;99293.69;;;8.47;82.32
12636;BME280;6383;50.830;7.210;2022-09-29T02:51:18;99291.31;;;8.46;81.92
12636;BME280;6383;50.830;7.210;2022-09-29T02:53:58;99294.66;;;8.43;82.36
12636;BME280;6383;50.830;7.210;2022-09-29T02:56:37;99298.00;;;8.40;81.59
12636;BME280;6383;50.830;7.210;2022-09-29T02:59:12;99303.44;;;8.40;81.74
12636;BME280;6383;50.830;7.210;2022-09-29T03:01:48;99292.41;;;8.36;81.77
12636;BME280;6383;50.830;7.210;2022-09-29T03:04:21;99292.25;;;8.33;81.69
12636;BME280;6383;50.830;7.210;2022-09-29T03:06:51;99295.88;;;8.28;82.46
12636;BME280;6383;50.830;7.210;2022-09-29T03:09:20;99291.72;;;8.22;81.70
12636;BME280;6383;50.830;7.210;2022-09-29T03:11:49;99298.19;;;8.04;82.27
12636;BME280;6383;50.830;7.210;2022-09-29T03:14:18;99294.91;;;8.16;81.72
12636;BME280;6383;50.830;7.210;2022-09-29T03:16:47;99299.19;;;8.17;81.75
12636;BME280;6383;50.830;7.210;2022-09-29T03:19:16;99299.19;;;8.17;81.90
12636;BME280;6383;50.830;7.210;2022-09-29T03:21:46;99295.38;;;8.18;81.66
12636;BME280;6383;50.830;7.210;2022-09-29T03:24:15;99287.09;;;8.14;80.71
12636;BME280;6383;50.830;7.210;2022-09-29T03:26:44;99294.41;;;8.13;81.22
12636;BME280;6383;50.830;7.210;2022-09-29T03:29:13;99301.25;;;8.11;80.73
12636;BME280;6383;50.830;7.210;2022-09-29T03:31:42;99301.56;;;8.09;81.05
12636;BME280;6383;50.830;7.210;2022-09-29T03:34:12;99300.78;;;8.09;81.27
12636;BME280;6383;50.830;7.210;2022-09-29T03:36:41;99300.78;;;8.09;80.58
12636;BME280;6383;50.830;7.210;2022-09-29T03:39:11;99307.31;;;8.08;81.62
12636;BME280;6383;50.830;7.210;2022-09-29T03:41:40;99300.28;;;8.07;80.85
12636;BME280;6383;50.830;7.210;2022-09-29T03:44:09;99304.91;;;8.06;80.41
12636;BME280;6383;50.830;7.210;2022-09-29T03:46:38;99299.63;;;8.01;81.00
12636;BME280;6383;50.830;7.210;2022-09-29T03:49:09;99302.97;;;7.98;81.12
12636;BME280;6383;50.830;7.210;2022-09-29T03:51:38;99306.81;;;7.97;80.48
12636;BME280;6383;50.830;7.210;2022-09-29T03:54:08;99294.38;;;7.96;80.75
12636;BME280;6383;50.830;7.210;2022-09-29T03:56:38;99303.59;;;7.95;79.79
12636;BME280;6383;50.830;7.210;2022-09-29T03:59:08;99309.16;;;7.90;80.82
12636;BME280;6383;50.830;7.210;2022-09-29T04:01:38;99308.81;;;7.83;80.15
12636;BME280;6383;50.830;7.210;2022-09-29T04:04:08;99318.19;;;7.77;81.01
12636;BME280;6383;50.830;7.210;2022-09-29T04:06:37;99321.81;;;7.72;80.24
12636;BME280;6383;50.830;7.210;2022-09-29T04:09:06;99327.41;;;7.76;80.91
12636;BME280;6383;50.830;7.210;2022-09-29T04:11:35;99323.91;;;7.75;80.32
12636;BME280;6383;50.830;7.210;2022-09-29T04:14:06;99325.50;;;7.76;80.75
12636;BME280;6383;50.830;7.210;2022-09-29T04:16:35;99333.63;;;7.76;79.92
12636;BME280;6383;50.830;7.210;2022-09-29T04:19:04;99335.53;;;7.76;80.70
12636;BME280;6383;50.830;7.210;2022-09-29T04:21:33;99335.84;;;7.74;80.55
12636;BME280;6383;50.830;7.210;2022-09-29T04:24:01;99331.53;;;7.73;80.16
12636;BME280;6383;50.830;7.210;2022-09-29T04:26:29;99345.38;;;7.72;79.89
12636;BME280;6383;50.830;7.210;2022-09-29T04:28:58;99334.09;;;7.70;80.09
12636;BME280;6383;50.830;7.210;2022-09-29T04:31:28;99337.59;;;7.70;80.92
12636;BME280;6383;50.830;7.210;2022-09-29T04:33:57;99335.22;;;7.69;80.70
12636;BME280;6383;50.830;7.210;2022-09-29T04:36:26;99341.72;;;7.68;80.08
12636;BME280;6383;50.830;7.210;2022-09-29T04:38:55;99342.84;;;7.67;80.75
12636;BME280;6383;50.830;7.210;2022-09-29T04:41:25;99341.25;;;7.66;80.19
12636;BME280;6383;50.830;7.210;2022-09-29T04:43:54;99339.63;;;7.65;81.12
12636;BME280;6383;50.830;7.210;2022-09-29T04:46:23;99343.16;;;7.65;80.59
12636;BME280;6383;50.830;7.210;2022-09-29T04:48:53;99347.44;;;7.66;80.28
12636;BME280;6383;50.830;7.210;2022-09-29T04:51:22;99350.16;;;7.66;81.13
12636;BME280;6383;50.830;7.210;2022-09-29T04:53:51;99353.34;;;7.68;80.45
12636;BME280;6383;50.830;7.210;2022-09-29T04:56:21;99352.88;;;7.66;80.85
12636;BME280;6383;50.830;7.210;2022-09-29T04:58:50;99350.16;;;7.66;80.87
12636;BME280;6383;50.830;7.210;2022-09-29T05:01:19;99356.38;;;7.67;80.67
12636;BME280;6383;50.830;7.210;2022-09-29T05:03:48;99353.66;;;7.67;80.51
12636;BME280;6383;50.830;7.210;2022-09-29T05:06:18;99350.97;;;7.67;81.70
12636;BME280;6383;50.830;7.210;2022-09-29T05:08:47;99352.88;;;7.66;81.69
12636;BME280;6383;50.830;7.210;2022-09-29T05:11:16;99358.28;;;7.66;82.28
12636;BME280;6383;50.830;7.210;2022-09-29T05:13:47;99363.41;;;7.68;82.46
12636;BME280;6383;50.830;7.210;2022-09-29T05:16:17;99362.59;;;7.67;82.04
12636;BME280;6383;50.830;7.210;2022-09-29T05:18:46;99363.88;;;7.70;81.45
12636;BME280;6383;50.830;7.210;2022-09-29T05:21:15;99372.00;;;7.70;81.77
12636;BME280;6383;50.830;7.210;2022-09-29T05:23:45;99369.00;;;7.71;82.35
12636;BME280;6383;50.830;7.210;2022-09-29T05:26:15;99381.88;;;7.74;81.55
12636;BME280;6383;50.830;7.210;2022-09-29T05:28:45;99375.69;;;7.74;81.45
12636;BME280;6383;50.830;7.210;2022-09-29T05:31:15;99380.78;;;7.75;81.11
12636;BME280;6383;50.830;7.210;2022-09-29T05:33:44;99376.78;;;7.73;81.43
12636;BME280;6383;50.830;7.210;2022-09-29T05:36:13;99376.63;;;7.69;81.61
12636;BME280;6383;50.830;7.210;2022-09-29T05:38:43;99382.34;;;7.68;81.34
12636;BME280;6383;50.830;7.210;2022-09-29T05:41:14;99385.56;;;7.70;81.50
12636;BME280;6383;50.830;7.210;2022-09-29T05:43:49;99376.63;;;7.69;80.66
12636;BME280;6383;50.830;7.210;2022-09-29T05:46:21;99386.66;;;7.69;80.74
12636;BME280;6383;50.830;7.210;2022-09-29T05:48:50;99385.06;;;7.68;80.75
12636;BME280;6383;50.830;7.210;2022-09-29T05:51:21;99379.66;;;7.68;81.19
12636;BME280;6383;50.830;7.210;2022-09-29T05:53:51;99388.56;;;7.68;80.90
12636;BME280;6383;50.830;7.210;2022-09-29T05:56:23;99378.84;;;7.67;81.19
12636;BME280;6383;50.830;7.210;2022-09-29T05:58:53;99389.66;;;7.67;81.02
12636;BME280;6383;50.830;7.210;2022-09-29T06:01:23;99381.84;;;7.66;81.28
12636;BME280;6383;50.830;7.210;2022-09-29T06:03:53;99385.19;;;7.63;80.39
12636;BME280;6383;50.830;7.210;2022-09-29T06:06:24;99388.19;;;7.61;80.74
12636;BME280;6383;50.830;7.210;2022-09-29T06:08:55;99395.50;;;7.61;80.95
12636;BME280;6383;50.830;7.210;2022-09-29T06:11:27;99385.47;;;7.61;80.89
12636;BME280;6383;50.830;7.210;2022-09-29T06:14:00;99398.72;;;7.63;81.67
12636;BME280;6383;50.830;7.210;2022-09-29T06:16:31;99390.59;;;7.63;81.46
12636;BME280;6383;50.830;7.210;2022-09-29T06:19:00;99390.59;;;7.63;81.81
12636;BME280;6383;50.830;7.210;2022-09-29T06:21:30;99397.31;;;7.65;82.42
12636;BME280;6383;50.830;7.210;2022-09-29T06:24:00;99398.91;;;7.66;82.03
12636;BME280;6383;50.830;7.210;2022-09-29T06:26:30;99398.59;;;7.68;82.03
12636;BME280;6383;50.830;7.210;2022-09-29T06:28:59;99395.59;;;7.69;81.82
12636;BME280;6383;50.830;7.210;2022-09-29T06:31:30;99401.00;;;7.69;81.97
12636;BME280;6383;50.830;7.210;2022-09-29T06:34:00;99398.28;;;7.69;82.01
12636;BME280;6383;50.830;7.210;2022-09-29T06:36:33;99406.56;;;7.73;82.90
12636;BME280;6383;50.830;7.210;2022-09-29T06:39:20;99407.88;;;7.75;82.18
12636;BME280;6383;50.830;7.210;2022-09-29T06:41:51;99411.25;;;7.81;83.16
12636;BME280;6383;50.830;7.210;2022-09-29T06:44:24;99415.25;;;7.84;82.63
12636;BME280;6383;50.830;7.210;2022-09-29T06:46:53;99408.72;;;7.85;82.98
12636;BME280;6383;50.830;7.210;2022-09-29T06:49:23;99412.09;;;7.90;83.11
12636;BME280;6383;50.830;7.210;2022-09-29T06:51:52;99407.97;;;7.93;84.07
12636;BME280;6383;50.830;7.210;2022-09-29T06:54:22;99412.16;;;7.99;84.74
12636;BME280;6383;50.830;7.210;2022-09-29T06:56:53;99412.31;;;8.02;84.76
12636;BME280;6383;50.830;7.210;2022-09-29T06:59:23;99419.50;;;8.07;84.16
12636;BME280;6383;50.830;7.210;2022-09-29T07:01:52;99426.41;;;8.13;84.43
12636;BME280;6383;50.830;7.210;2022-09-29T07:04:21;99415.41;;;8.18;84.95
12636;BME280;6383;50.830;7.210;2022-09-29T07:06:50;99419.59;;;8.24;84.70
12636;BME280;6383;50.830;7.210;2022-09-29T07:09:19;99418.97;;;8.27;85.01
12636;BME280;6383;50.830;7.210;2022-09-29T07:11:50;99425.34;;;8.31;85.58
12636;BME280;6383;50.830;7.210;2022-09-29T07:14:22;99423.97;;;8.34;85.62
12636;BME280;6383;50.830;7.210;2022-09-29T07:16:52;99427.34;;;8.39;86.12
12636;BME280;6383;50.830;7.210;2022-09-29T07:19:21;99429.13;;;8.44;86.36
12636;BME280;6383;50.830;7.210;2022-09-29T07:21:50;99436.59;;;8.47;86.09
12636;BME280;6383;50.830;7.210;2022-09-29T07:24:19;99429.94;;;8.53;86.83
12636;BME280;6383;50.830;7.210;2022-09-29T07:26:49;99431.41;;;8.59;87.62
12636;BME280;6383;50.830;7.210;2022-09-29T07:29:18;99436.50;;;8.61;86.53
12636;BME280;6383;50.830;7.210;2022-09-29T07:31:49;99434.56;;;8.61;86.53
12636;BME280;6383;50.830;7.210;2022-09-29T07:34:19;99435.06;;;8.63;87.74
12636;BME280;6383;50.830;7.210;2022-09-29T07:36:49;99426.31;;;8.66;87.52
12636;BME280;6383;50.830;7.210;2022-09-29T07:39:19;99433.81;;;8.69;88.01
12636;BME280;6383;50.830;7.210;2022-09-29T07:41:48;99431.78;;;8.75;87.22
12636;BME280;6383;50.830;7.210;2022-09-29T07:44:18;99431.28;;;8.81;87.49
12636;BME280;6383;50.830;7.210;2022-09-29T07:46:49;99428.44;;;8.87;88.12
12636;BME280;6383;50.830;7.210;2022-09-29T07:49:18;99432.56;;;8.93;88.65
12636;BME280;6383;50.830;7.210;2022-09-29T07:51:47;99428.59;;;8.99;88.95
12636;BME280;6383;50.830;7.210;2022-09-29T07:54:16;99422.69;;;9.05;88.65
12636;BME280;6383;50.830;7.210;2022-09-29T07:56:45;99433.88;;;9.12;89.48
12636;BME280;6383;50.830;7.210;2022-09-29T07:59:14;99431.50;;;9.19;90.11
12636;BME280;6383;50.830;7.210;2022-09-29T08:01:43;99432.13;;;9.25;88.70
12636;BME280;6383;50.830;7.210;2022-09-29T08:04:14;99438.22;;;9.31;89.29
12636;BME280;6383;50.830;7.210;2022-09-29T08:06:43;99446.66;;;9.38;89.56
12636;BME280;6383;50.830;7.210;2022-09-29T08:09:13;99446.19;;;9.44;89.88
12636;BME280;6383;50.830;7.210;2022-09-29T08:11:42;99446.50;;;9.51;89.74
12636;BME280;6383;50.830;7.210;2022-09-29T08:14:11;99456.91;;;9.58;89.33
12636;BME280;6383;50.830;7.210;2022-09-29T08:16:40;99449.72;;;9.62;88.96
12636;BME280;6383;50.830;7.210;2022-09-29T08:19:09;99465.81;;;9.67;89.24
12636;BME280;6383;50.830;7.210;2022-09-29T08:21:40;99459.28;;;9.68;89.32
12636;BME280;6383;50.830;7.210;2022-09-29T08:24:12;99472.22;;;9.71;89.02
12636;BME280;6383;50.830;7.210;2022-09-29T08:26:41;99467.75;;;9.75;90.19
12636;BME280;6383;50.830;7.210;2022-09-29T08:29:11;99468.38;;;9.81;89.38
12636;BME280;6383;50.830;7.210;2022-09-29T08:31:40;99474.78;;;9.85;90.04
12636;BME280;6383;50.830;7.210;2022-09-29T08:34:10;99470.63;;;9.87;89.57
12636;BME280;6383;50.830;7.210;2022-09-29T08:36:41;99478.59;;;9.93;90.10
12636;BME280;6383;50.830;7.210;2022-09-29T08:39:11;99483.84;;;9.98;89.88
12636;BME280;6383;50.830;7.210;2022-09-29T08:41:49;99486.25;;;9.99;90.07
12636;BME280;6383;50.830;7.210;2022-09-29T08:44:33;99483.69;;;10.03;89.56
12636;BME280;6383;50.830;7.210;2022-09-29T08:47:13;99485.59;;;10.11;90.26
12636;BME280;6383;50.830;7.210;2022-09-29T08:49:46;99486.72;;;10.18;89.55
12636;BME280;6383;50.830;7.210;2022-09-29T08:52:20;99488.00;;;10.21;89.04
12636;BME280;6383;50.830;7.210;2022-09-29T08:54:55;99483.66;;;10.29;90.05
12636;BME280;6383;50.830;7.210;2022-09-29T08:57:25;99490.84;;;10.33;89.78
12636;BME280;6383;50.830;7.210;2022-09-29T08:59:56;99489.53;;;10.39;89.21
12636;BME280;6383;50.830;7.210;2022-09-29T09:02:44;99490.81;;;10.42;89.59
12636;BME280;6383;50.830;7.210;2022-09-29T09:08:21;99497.16;;;10.54;88.96
12636;BME280;6383;50.830;7.210;2022-09-29T09:11:04;99493.94;;;10.61;89.21
12636;BME280;6383;50.830;7.210;2022-09-29T09:13:51;99491.84;;;10.67;89.23
12636;BME280;6383;50.830;7.210;2022-09-29T09:16:34;99485.88;;;10.73;89.19
12636;BME280;6383;50.830;7.210;2022-09-29T09:22:17;99490.63;;;10.85;89.29
12636;BME280;6383;50.830;7.210;2022-09-29T09:24:55;99490.13;;;10.91;89.45
12636;BME280;6383;50.830;7.210;2022-09-29T09:27:26;99490.38;;;10.99;89.26
12636;BME280;6383;50.830;7.210;2022-09-29T09:30:02;99492.94;;;11.04;89.13
12636;BME280;6383;50.830;7.210;2022-09-29T09:32:34;99484.25;;;11.10;88.38
12636;BME280;6383;50.830;7.210;2022-09-29T09:35:26;99497.97;;;11.14;88.60
12636;BME280;6383;50.830;7.210;2022-09-29T09:38:00;99494.44;;;11.22;88.63
12636;BME280;6383;50.830;7.210;2022-09-29T09:40:37;99494.56;;;11.25;89.00
12636;BME280;6383;50.830;7.210;2022-09-29T09:43:11;99493.38;;;11.35;88.67
12636;BME280;6383;50.830;7.210;2022-09-29T09:45:46;99487.41;;;11.42;88.93
12636;BME280;6383;50.830;7.210;2022-09-29T09:48:20;99495.03;;;11.48;88.95
12636;BME280;6383;50.830;7.210;2022-09-29T09:50:51;99489.06;;;11.55;88.72
12636;BME280;6383;50.830;7.210;2022-09-29T09:53:27;99489.31;;;11.62;88.69
12636;BME280;6383;50.830;7.210;2022-09-29T09:56:09;99492.00;;;11.71;88.33
12636;BME280;6383;50.830;7.210;2022-09-29T09:59:01;99492.59;;;11.76;87.94
12636;BME280;6383;50.830;7.210;2022-09-29T10:01:32;99491.41;;;11.86;87.33
12636;BME280;6383;50.830;7.210;2022-09-29T10:04:01;99494.50;;;11.96;87.32
12636;BME280;6383;50.830;7.210;2022-09-29T10:06:31;99483.50;;;12.05;87.73
12636;BME280;6383;50.830;7.210;2022-09-29T10:09:00;99487.41;;;12.16;87.07
12636;BME280;6383;50.830;7.210;2022-09-29T10:11:31;99488.56;;;12.27;86.40
12636;BME280;6383;50.830;7.210;2022-09-29T10:14:03;99485.53;;;12.41;87.33
12636;BME280;6383;50.830;7.210;2022-09-29T10:16:35;99487.59;;;12.56;86.79
12636;BME280;6383;50.830;7.210;2022-09-29T11:57:48;99509.69;;;19.84;53.62
12636;BME280;6383;50.830;7.210;2022-09-29T12:07:22;99492.75;;;19.20;48.81
12636;BME280;6383;50.830;7.210;2022-09-29T12:10:27;99502.81;;;18.95;51.91
12636;BME280;6383;50.830;7.210;2022-09-29T12:13:07;99505.94;;;18.90;50.73
12636;BME280;6383;50.830;7.210;2022-09-29T12:15:46;99501.13;;;18.80;49.71
12636;BME280;6383;50.830;7.210;2022-09-29T12:18:21;99499.50;;;18.75;50.33
12636;BME280;6383;50.830;7.210;2022-09-29T12:20:58;99500.25;;;18.72;50.02
12636;BME280;6383;50.830;7.210;2022-09-29T12:23:31;99498.72;;;18.75;49.23
12636;BME280;6383;50.830;7.210;2022-09-29T12:26:06;99497.13;;;18.74;49.54
12636;BME280;6383;50.830;7.210;2022-09-29T12:28:43;99498.66;;;18.67;48.83
12636;BME280;6383;50.830;7.210;2022-09-29T12:31:20;99493.97;;;18.72;48.12
12636;BME280;6383;50.830;7.210;2022-09-29T12:33:59;99490.44;;;18.75;47.62
12636;BME280;6383;50.830;7.210;2022-09-29T12:36:39;99489.25;;;18.72;48.57
12636;BME280;6383;50.830;7.210;2022-09-29T12:39:40;99494.34;;;18.70;47.87
12636;BME280;6383;50.830;7.210;2022-09-29T12:42:21;99495.53;;;18.69;48.10
12636;BME280;6383;50.830;7.210;2022-09-29T12:45:00;99492.00;;;18.69;47.06
12636;BME280;6383;50.830;7.210;2022-09-29T12:47:46;99490.03;;;18.73;46.73
12636;BME280;6383;50.830;7.210;2022-09-29T12:50:21;99491.81;;;19.57;41.92
12636;BME280;6383;50.830;7.210;2022-09-29T12:53:04;99484.06;;;19.87;41.85
12636;BME280;6383;50.830;7.210;2022-09-29T12:55:44;99477.41;;;20.02;41.62
12636;BME280;6383;50.830;7.210;2022-09-29T12:58:21;99488.09;;;20.11;41.80
12636;BME280;6383;50.830;7.210;2022-09-29T13:00:56;99484.94;;;20.13;39.97
12636;BME280;6383;50.830;7.210;2022-09-29T13:04:11;99482.53;;;20.04;38.62
12636;BME280;6383;50.830;7.210;2022-09-29T13:10:25;99483.25;;;19.83;39.40
12636;BME280;6383;50.830;7.210;2022-09-29T13:16:31;99485.97;;;19.76;39.81
12636;BME280;6383;50.830;7.210;2022-09-29T13:19:28;99495.03;;;19.69;38.51
12636;BME280;6383;50.830;7.210;2022-09-29T13:22:31;99493.81;;;19.63;39.61
12636;BME280;6383;50.830;7.210;2022-09-29T13:25:06;99491.03;;;19.60;38.51
12636;BME280;6383;50.830;7.210;2022-09-29T13:27:46;99495.34;;;19.54;37.95
12636;BME280;6383;50.830;7.210;2022-09-29T13:30:19;99493.78;;;19.53;38.08
12636;BME280;6383;50.830;7.210;2022-09-29T13:33:08;99496.03;;;19.40;37.77
12636;BME280;6383;50.830;7.210;2022-09-29T13:35:48;99500.31;;;19.34;39.81
12636;BME280;6383;50.830;7.210;2022-09-29T13:38:26;99497.16;;;19.28;38.61
12636;BME280;6383;50.830;7.210;2022-09-29T13:41:13;99499.88;;;19.25;38.16
12636;BME280;6383;50.830;7.210;2022-09-29T13:47:26;99499.78;;;18.22;42.02
12636;BME280;6383;50.830;7.210;2022-09-29T13:50:01;99504.03;;;17.83;43.08
12636;BME280;6383;50.830;7.210;2022-09-29T13:52:38;99503.25;;;17.56;43.98
12636;BME280;6383;50.830;7.210;2022-09-29T13:57:58;99504.50;;;17.06;44.61
12636;BME280;6383;50.830;7.210;2022-09-29T14:00:27;99499.97;;;16.90;44.88
12636;BME280;6383;50.830;7.210;2022-09-29T14:05:54;99510.94;;;16.68;46.86
12636;BME280;6383;50.830;7.210;2022-09-29T14:08:27;99510.03;;;16.60;47.15
12636;BME280;6383;50.830;7.210;2022-09-29T14:11:02;99505.97;;;16.54;47.19
12636;BME280;6383;50.830;7.210;2022-09-29T14:13:39;99512.13;;;16.47;47.54
12636;BME280;6383;50.830;7.210;2022-09-29T14:16:15;99514.75;;;16.40;47.87
12636;BME280;6383;50.830;7.210;2022-09-29T14:18:50;99513.47;;;16.34;48.54
12636;BME280;6383;50.830;7.210;2022-09-29T14:27:06;99524.13;;;16.16;49.59
12636;BME280;6383;50.830;7.210;2022-09-29T14:29:44;99533.00;;;16.10;49.06
12636;BME280;6383;50.830;7.210;2022-09-29T14:32:16;99530.09;;;16.03;50.26
12636;BME280;6383;50.830;7.210;2022-09-29T14:34:53;99531.56;;;15.97;49.62
12636;BME280;6383;50.830;7.210;2022-09-29T14:37:25;99532.63;;;15.92;50.34
12636;BME280;6383;50.830;7.210;2022-09-29T14:39:54;99532.94;;;15.87;50.25
12636;BME280;6383;50.830;7.210;2022-09-29T14:42:43;99540.66;;;15.81;50.97
12636;BME280;6383;50.830;7.210;2022-09-29T14:45:11;99538.56;;;15.75;51.17
12636;BME280;6383;50.830;7.210;2022-09-29T14:48:00;99547.09;;;15.70;51.34
12636;BME280;6383;50.830;7.210;2022-09-29T14:50:51;99552.84;;;15.65;51.55
12636;BME280;6383;50.830;7.210;2022-09-29T14:53:42;99545.69;;;15.60;51.81
12636;BME280;6383;50.830;7.210;2022-09-29T14:56:24;99553.00;;;15.72;52.11
12636;BME280;6383;50.830;7.210;2022-09-29T14:59:23;99551.06;;;15.72;51.67
12636;BME280;6383;50.830;7.210;2022-09-29T15:02:18;99550.97;;;15.88;52.24
12636;BME280;6383;50.830;7.210;2022-09-29T15:04:52;99556.44;;;16.65;50.86
12636;BME280;6383;50.830;7.210;2022-09-29T15:07:22;99556.59;;;16.34;52.01
12636;BME280;6383;50.830;7.210;2022-09-29T15:09:53;99561.03;;;16.00;52.11
12636;BME280;6383;50.830;7.210;2022-09-29T15:12:23;99559.94;;;15.85;52.49
12636;BME280;6383;50.830;7.210;2022-09-29T15:14:55;99560.50;;;15.75;53.16
12636;BME280;6383;50.830;7.210;2022-09-29T15:17:30;99557.97;;;15.66;53.48
12636;BME280;6383;50.830;7.210;2022-09-29T15:20:08;99559.78;;;15.78;52.94
12636;BME280;6383;50.830;7.210;2022-09-29T15:22:58;99559.00;;;15.77;53.27
12636;BME280;6383;50.830;7.210;2022-09-29T15:25:34;99562.63;;;15.81;54.13
12636;BME280;6383;50.830;7.210;2022-09-29T15:28:05;99563.75;;;15.80;53.89
12636;BME280;6383;50.830;7.210;2022-09-29T15:30:38;99562.16;;;15.79;54.93
12636;BME280;6383;50.830;7.210;2022-09-29T15:33:18;99575.00;;;15.75;55.41
12636;BME280;6383;50.830;7.210;2022-09-29T15:35:50;99568.38;;;15.76;56.48
12636;BME280;6383;50.830;7.210;2022-09-29T15:38:28;99565.94;;;15.71;56.26
12636;BME280;6383;50.830;7.210;2022-09-29T15:41:02;99570.25;;;15.72;57.44
12636;BME280;6383;50.830;7.210;2022-09-29T15:43:39;99578.75;;;15.67;57.27
12636;BME280;6383;50.830;7.210;2022-09-29T15:46:16;99577.16;;;15.66;57.88
12636;BME280;6383;50.830;7.210;2022-09-29T15:49:13;99581.38;;;15.79;56.38
12636;BME280;6383;50.830;7.210;2022-09-29T15:51:53;99587.38;;;16.43;54.46
12636;BME280;6383;50.830;7.210;2022-09-29T15:54:25;99592.25;;;16.11;56.10
12636;BME280;6383;50.830;7.210;2022-09-29T15:56:56;99591.16;;;15.96;56.17
12636;BME280;6383;50.830;7.210;2022-09-29T15:59:45;99597.22;;;15.86;56.71
12636;BME280;6383;50.830;7.210;2022-09-29T16:02:25;99597.41;;;15.77;58.56
12636;BME280;6383;50.830;7.210;2022-09-29T16:04:59;99596.09;;;15.71;58.09
12636;BME280;6383;50.830;7.210;2022-09-29T16:07:30;99610.09;;;15.66;59.66